sensor_id;sensor_type;location;lat;lon;timestamp;pressure;altitude;pressure_sealevel;temperature;humidity
54978;BME280;40873;47.522;19.106;2023-04-27T00:02:01;100524.13;;;5.10;83.65
54978;BME280;40873;47.522;19.106;2023-04-27T00:04:29;100520.00;;;5.03;82.76
54978;BME280;40873;47.522;19.106;2023-04-27T00:06:59;100523.34;;;5.07;85.40
54978;BME280;40873;47.522;19.106;2023-04-27T00:09:26;100527.16;;;4.98;90.00
54978;BME280;40873;47.522;19.106;2023-04-27T00:11:53;100530.47;;;5.03;87.00
54978;BME280;40873;47.522;19.106;2023-04-27T00:14:20;100520.84;;;5.04;89.73
54978;BME280;40873;47.522;19.106;2023-04-27T00:16:47;100528.66;;;5.05;88.86
54978;BME280;40873;47.522;19.106;2023-04-27T00:19:14;100530.34;;;5.06;87.11
54978;BME280;40873;47.522;19.106;2023-04-27T00:21:42;100524.31;;;5.04;86.57
54978;BME280;40873;47.522;19.106;2023-04-27T00:24:09;100524.38;;;5.03;84.27
54978;BME280;40873;47.522;19.106;2023-04-27T00:26:37;100525.13;;;5.06;82.58
54978;BME280;40873;47.522;19.106;2023-04-27T00:29:04;100523.06;;;5.16;82.40
54978;BME280;40873;47.522;19.106;2023-04-27T00:31:31;100524.81;;;5.15;80.34
54978;BME280;40873;47.522;19.106;2023-04-27T00:33:58;100521.38;;;5.13;80.81
54978;BME280;40873;47.522;19.106;2023-04-27T00:36:25;100522.94;;;5.19;80.69
54978;BME280;40873;47.522;19.106;2023-04-27T00:38:53;100525.13;;;5.31;80.02
54978;BME280;40873;47.522;19.106;2023-04-27T00:41:19;100529.59;;;5.28;80.05
54978;BME280;40873;47.522;19.106;2023-04-27T00:43:48;100533.94;;;5.29;80.24
54978;BME280;40873;47.522;19.106;2023-04-27T00:46:15;100536.66;;;5.26;79.47
54978;BME280;40873;47.522;19.106;2023-04-27T00:48:43;100529.78;;;5.23;78.52
54978;BME280;40873;47.522;19.106;2023-04-27T00:51:10;100533.41;;;5.19;80.04
54978;BME280;40873;47.522;19.106;2023-04-27T00:53:38;100525.13;;;5.06;79.53
54978;BME280;40873;47.522;19.106;2023-04-27T00:56:06;100525.25;;;5.03;81.45
54978;BME280;40873;47.522;19.106;2023-04-27T00:58:33;100518.19;;;5.05;81.85
54978;BME280;40873;47.522;19.106;2023-04-27T01:01:00;100527.84;;;5.03;81.66
54978;BME280;40873;47.522;19.106;2023-04-27T01:03:28;100520.22;;;4.97;80.29
54978;BME280;40873;47.522;19.106;2023-04-27T01:05:56;100525.56;;;4.94;82.70
54978;BME280;40873;47.522;19.106;2023-04-27T01:08:25;100524.16;;;4.84;81.46
54978;BME280;40873;47.522;19.106;2023-04-27T01:10:52;100530.44;;;4.78;80.25
54978;BME280;40873;47.522;19.106;2023-04-27T01:13:19;100527.94;;;4.75;82.82
54978;BME280;40873;47.522;19.106;2023-04-27T01:15:46;100531.53;;;4.71;83.96
54978;BME280;40873;47.522;19.106;2023-04-27T01:18:13;100531.53;;;4.71;82.82
54978;BME280;40873;47.522;19.106;2023-04-27T01:20:40;100532.72;;;4.62;84.00
54978;BME280;40873;47.522;19.106;2023-04-27T01:23:11;100535.44;;;4.59;82.87
54978;BME280;40873;47.522;19.106;2023-04-27T01:25:41;100531.09;;;4.58;86.27
54978;BME280;40873;47.522;19.106;2023-04-27T01:28:09;100541.00;;;4.49;85.20
54978;BME280;40873;47.522;19.106;2023-04-27T01:30:35;100537.00;;;4.38;86.45
54978;BME280;40873;47.522;19.106;2023-04-27T01:33:03;100539.53;;;4.40;87.30
54978;BME280;40873;47.522;19.106;2023-04-27T01:35:30;100540.44;;;4.39;87.70
54978;BME280;40873;47.522;19.106;2023-04-27T01:37:57;100542.09;;;4.42;88.67
54978;BME280;40873;47.522;19.106;2023-04-27T01:40:24;100546.66;;;4.35;87.69
54978;BME280;40873;47.522;19.106;2023-04-27T01:42:51;100546.59;;;4.36;88.63
54978;BME280;40873;47.522;19.106;2023-04-27T01:45:18;100538.31;;;4.24;88.51
54978;BME280;40873;47.522;19.106;2023-04-27T01:47:45;100543.06;;;4.11;90.29
54978;BME280;40873;47.522;19.106;2023-04-27T01:50:12;100542.84;;;4.19;89.37
54978;BME280;40873;47.522;19.106;2023-04-27T01:52:39;100542.13;;;4.13;90.71
54978;BME280;40873;47.522;19.106;2023-04-27T01:55:06;100547.56;;;4.06;87.30
54978;BME280;40873;47.522;19.106;2023-04-27T01:57:34;100550.06;;;4.09;88.39
54978;BME280;40873;47.522;19.106;2023-04-27T02:00:00;100559.63;;;4.10;88.48
54978;BME280;40873;47.522;19.106;2023-04-27T02:02:28;100552.88;;;4.03;90.02
54978;BME280;40873;47.522;19.106;2023-04-27T02:04:55;100559.09;;;3.99;92.18
54978;BME280;40873;47.522;19.106;2023-04-27T02:07:22;100551.44;;;3.93;92.43
54978;BME280;40873;47.522;19.106;2023-04-27T02:09:49;100559.94;;;3.99;92.40
54978;BME280;40873;47.522;19.106;2023-04-27T02:12:17;100555.72;;;3.95;92.40
54978;BME280;40873;47.522;19.106;2023-04-27T02:14:43;100564.44;;;3.94;91.67
54978;BME280;40873;47.522;19.106;2023-04-27T02:17:13;100555.75;;;3.94;93.00
54978;BME280;40873;47.522;19.106;2023-04-27T02:19:40;100569.81;;;3.90;95.21
54978;BME280;40873;47.522;19.106;2023-04-27T02:22:07;100572.69;;;3.80;96.87
54978;BME280;40873;47.522;19.106;2023-04-27T02:24:34;100576.06;;;3.84;95.93
54978;BME280;40873;47.522;19.106;2023-04-27T02:27:02;100565.75;;;3.79;96.57
54978;BME280;40873;47.522;19.106;2023-04-27T02:29:30;100570.97;;;3.79;96.30
54978;BME280;40873;47.522;19.106;2023-04-27T02:31:57;100570.13;;;3.79;97.37
54978;BME280;40873;47.522;19.106;2023-04-27T02:34:24;100570.91;;;3.81;97.38
54978;BME280;40873;47.522;19.106;2023-04-27T02:36:51;100572.09;;;3.71;97.54
54978;BME280;40873;47.522;19.106;2023-04-27T02:39:18;100574.75;;;3.69;98.94
54978;BME280;40873;47.522;19.106;2023-04-27T02:41:47;100575.91;;;3.59;99.53
54978;BME280;40873;47.522;19.106;2023-04-27T02:44:14;100575.84;;;3.61;100.00
54978;BME280;40873;47.522;19.106;2023-04-27T02:46:41;100581.13;;;3.59;100.00
54978;BME280;40873;47.522;19.106;2023-04-27T02:49:08;100585.31;;;3.65;100.00
54978;BME280;40873;47.522;19.106;2023-04-27T02:51:35;100585.59;;;3.55;100.00
54978;BME280;40873;47.522;19.106;2023-04-27T02:54:01;100590.72;;;3.58;100.00
54978;BME280;40873;47.522;19.106;2023-04-27T02:56:29;100592.72;;;3.49;100.00
54978;BME280;40873;47.522;19.106;2023-04-27T02:58:56;100596.34;;;3.43;100.00
54978;BME280;40873;47.522;19.106;2023-04-27T03:01:23;100599.91;;;3.39;100.00
54978;BME280;40873;47.522;19.106;2023-04-27T03:03:50;100598.06;;;3.44;100.00
54978;BME280;40873;47.522;19.106;2023-04-27T03:06:18;100600.09;;;3.33;100.00
54978;BME280;40873;47.522;19.106;2023-04-27T03:08:45;100599.97;;;3.38;100.00
54978;BME280;40873;47.522;19.106;2023-04-27T03:11:12;100607.34;;;3.22;100.00
54978;BME280;40873;47.522;19.106;2023-04-27T03:13:38;100609.00;;;3.24;100.00
54978;BME280;40873;47.522;19.106;2023-04-27T03:16:11;100607.16;;;3.29;100.00
54978;BME280;40873;47.522;19.106;2023-04-27T03:18:39;100614.28;;;3.23;100.00
54978;BME280;40873;47.522;19.106;2023-04-27T03:21:07;100602.13;;;3.22;100.00
54978;BME280;40873;47.522;19.106;2023-04-27T03:23:34;100607.19;;;3.28;100.00
54978;BME280;40873;47.522;19.106;2023-04-27T03:26:06;100608.00;;;3.30;100.00
54978;BME280;40873;47.522;19.106;2023-04-27T03:28:33;100613.13;;;3.33;100.00
54978;BME280;40873;47.522;19.106;2023-04-27T03:31:10;100625.31;;;3.33;100.00
54978;BME280;40873;47.522;19.106;2023-04-27T03:33:38;100616.78;;;3.26;100.00
54978;BME280;40873;47.522;19.106;2023-04-27T03:36:06;100616.78;;;3.27;100.00
54978;BME280;40873;47.522;19.106;2023-04-27T03:38:33;100618.69;;;3.19;100.00
54978;BME280;40873;47.522;19.106;2023-04-27T03:41:01;100624.03;;;3.15;100.00
54978;BME280;40873;47.522;19.106;2023-04-27T03:43:28;100625.56;;;3.23;100.00
54978;BME280;40873;47.522;19.106;2023-04-27T03:45:55;100632.59;;;3.20;100.00
54978;BME280;40873;47.522;19.106;2023-04-27T03:48:22;100624.94;;;3.14;100.00
54978;BME280;40873;47.522;19.106;2023-04-27T03:50:50;100628.63;;;3.05;100.00
54978;BME280;40873;47.522;19.106;2023-04-27T03:53:17;100630.50;;;2.98;100.00
54978;BME280;40873;47.522;19.106;2023-04-27T03:55:44;100634.81;;;3.01;100.00
54978;BME280;40873;47.522;19.106;2023-04-27T03:58:11;100633.72;;;3.10;100.00
54978;BME280;40873;47.522;19.106;2023-04-27T04:00:38;100639.50;;;3.22;100.00
54978;BME280;40873;47.522;19.106;2023-04-27T04:03:06;100640.44;;;3.18;100.00
54978;BME280;40873;47.522;19.106;2023-04-27T04:05:34;100637.59;;;3.29;100.00
54978;BME280;40873;47.522;19.106;2023-04-27T04:08:01;100641.91;;;3.30;100.00
54978;BME280;40873;47.522;19.106;2023-04-27T04:10:29;100639.94;;;3.38;100.00
54978;BME280;40873;47.522;19.106;2023-04-27T04:12:56;100649.47;;;3.39;100.00
54978;BME280;40873;47.522;19.106;2023-04-27T04:15:23;100652.19;;;3.36;100.00
54978;BME280;40873;47.522;19.106;2023-04-27T04:17:50;100657.44;;;3.33;100.00
54978;BME280;40873;47.522;19.106;2023-04-27T04:20:17;100661.59;;;3.42;100.00
54978;BME280;40873;47.522;19.106;2023-04-27T04:22:44;100658.84;;;3.48;100.00
54978;BME280;40873;47.522;19.106;2023-04-27T04:25:11;100659.34;;;3.61;100.00
54978;BME280;40873;47.522;19.106;2023-04-27T04:27:39;100673.22;;;3.63;100.00
54978;BME280;40873;47.522;19.106;2023-04-27T04:30:07;100655.66;;;3.69;100.00
54978;BME280;40873;47.522;19.106;2023-04-27T04:32:34;100665.22;;;3.69;100.00
54978;BME280;40873;47.522;19.106;2023-04-27T04:35:04;100661.50;;;3.77;100.00
54978;BME280;40873;47.522;19.106;2023-04-27T04:37:32;100672.63;;;3.84;100.00
54978;BME280;40873;47.522;19.106;2023-04-27T04:40:03;100673.16;;;3.97;100.00
54978;BME280;40873;47.522;19.106;2023-04-27T04:42:35;100667.56;;;4.10;100.00
54978;BME280;40873;47.522;19.106;2023-04-27T04:45:03;100670.63;;;4.25;100.00
54978;BME280;40873;47.522;19.106;2023-04-27T04:47:30;100673.06;;;4.29;100.00
54978;BME280;40873;47.522;19.106;2023-04-27T04:49:58;100667.63;;;4.37;100.00
54978;BME280;40873;47.522;19.106;2023-04-27T04:52:25;100673.34;;;4.50;100.00
54978;BME280;40873;47.522;19.106;2023-04-27T04:54:52;100677.47;;;4.57;100.00
54978;BME280;40873;47.522;19.106;2023-04-27T04:57:19;100680.63;;;4.68;100.00
54978;BME280;40873;47.522;19.106;2023-04-27T04:59:46;100674.25;;;4.77;100.00
54978;BME280;40873;47.522;19.106;2023-04-27T05:02:13;100674.78;;;4.88;99.27
54978;BME280;40873;47.522;19.106;2023-04-27T05:04:40;100684.75;;;5.03;97.56
54978;BME280;40873;47.522;19.106;2023-04-27T05:07:07;100680.84;;;5.16;97.57
54978;BME280;40873;47.522;19.106;2023-04-27T05:09:34;100684.03;;;5.25;96.09
54978;BME280;40873;47.522;19.106;2023-04-27T05:12:01;100689.81;;;5.34;92.90
54978;BME280;40873;47.522;19.106;2023-04-27T05:14:28;100688.69;;;5.41;91.10
54978;BME280;40873;47.522;19.106;2023-04-27T05:16:55;100694.31;;;5.56;88.91
54978;BME280;40873;47.522;19.106;2023-04-27T05:19:22;100700.06;;;5.67;89.68
54978;BME280;40873;47.522;19.106;2023-04-27T05:21:50;100701.44;;;5.77;87.42
54978;BME280;40873;47.522;19.106;2023-04-27T05:24:17;100692.31;;;5.89;87.08
54978;BME280;40873;47.522;19.106;2023-04-27T05:26:44;100698.00;;;6.01;86.69
54978;BME280;40873;47.522;19.106;2023-04-27T05:29:11;100700.13;;;6.15;86.25
54978;BME280;40873;47.522;19.106;2023-04-27T05:31:38;100710.22;;;6.26;85.20
54978;BME280;40873;47.522;19.106;2023-04-27T05:34:08;100706.16;;;6.41;85.82
54978;BME280;40873;47.522;19.106;2023-04-27T05:36:35;100705.69;;;6.53;84.61
54978;BME280;40873;47.522;19.106;2023-04-27T05:39:02;100707.91;;;6.64;82.85
54978;BME280;40873;47.522;19.106;2023-04-27T05:41:29;100713.59;;;6.75;81.76
54978;BME280;40873;47.522;19.106;2023-04-27T05:43:56;100712.31;;;6.85;80.17
54978;BME280;40873;47.522;19.106;2023-04-27T05:46:23;100711.94;;;6.94;77.63
54978;BME280;40873;47.522;19.106;2023-04-27T05:48:50;100714.53;;;6.96;79.19
54978;BME280;40873;47.522;19.106;2023-04-27T05:51:17;100716.66;;;7.08;77.79
54978;BME280;40873;47.522;19.106;2023-04-27T05:53:44;100720.72;;;7.15;76.68
54978;BME280;40873;47.522;19.106;2023-04-27T05:56:12;100714.06;;;7.28;73.76
54978;BME280;40873;47.522;19.106;2023-04-27T05:58:39;100721.97;;;7.49;75.13
54978;BME280;40873;47.522;19.106;2023-04-27T06:01:05;100722.19;;;7.64;72.05
54978;BME280;40873;47.522;19.106;2023-04-27T06:03:33;100731.84;;;7.84;68.93
54978;BME280;40873;47.522;19.106;2023-04-27T06:06:00;100725.41;;;8.12;67.74
54978;BME280;40873;47.522;19.106;2023-04-27T06:08:28;100726.13;;;8.34;67.61
54978;BME280;40873;47.522;19.106;2023-04-27T06:10:56;100730.97;;;8.45;66.60
54978;BME280;40873;47.522;19.106;2023-04-27T06:13:23;100725.72;;;8.64;65.32
54978;BME280;40873;47.522;19.106;2023-04-27T06:15:50;100726.97;;;8.74;60.58
54978;BME280;40873;47.522;19.106;2023-04-27T06:18:17;100719.94;;;8.93;62.58
54978;BME280;40873;47.522;19.106;2023-04-27T06:20:44;100726.72;;;9.16;60.49
54978;BME280;40873;47.522;19.106;2023-04-27T06:23:12;100729.53;;;9.30;61.90
54978;BME280;40873;47.522;19.106;2023-04-27T06:25:43;100731.88;;;9.37;60.84
54978;BME280;40873;47.522;19.106;2023-04-27T06:28:10;100726.94;;;9.48;58.58
54978;BME280;40873;47.522;19.106;2023-04-27T06:30:38;100734.53;;;9.54;56.79
54978;BME280;40873;47.522;19.106;2023-04-27T06:33:05;100736.31;;;9.53;55.88
54978;BME280;40873;47.522;19.106;2023-04-27T06:35:32;100740.94;;;9.66;57.03
54978;BME280;40873;47.522;19.106;2023-04-27T06:37:59;100739.25;;;9.65;56.94
54978;BME280;40873;47.522;19.106;2023-04-27T06:40:26;100734.28;;;9.58;55.94
54978;BME280;40873;47.522;19.106;2023-04-27T06:42:53;100735.38;;;9.72;55.17
54978;BME280;40873;47.522;19.106;2023-04-27T06:45:20;100747.88;;;9.68;55.14
54978;BME280;40873;47.522;19.106;2023-04-27T06:47:47;100738.56;;;9.61;55.07
54978;BME280;40873;47.522;19.106;2023-04-27T06:50:14;100742.19;;;9.58;54.21
54978;BME280;40873;47.522;19.106;2023-04-27T06:52:42;100740.47;;;9.57;56.64
54978;BME280;40873;47.522;19.106;2023-04-27T06:55:09;100740.34;;;9.60;54.17
54978;BME280;40873;47.522;19.106;2023-04-27T06:57:36;100738.41;;;9.47;50.71
54978;BME280;40873;47.522;19.106;2023-04-27T07:00:03;100743.75;;;9.63;51.40
54978;BME280;40873;47.522;19.106;2023-04-27T07:02:31;100742.91;;;9.62;51.62
54978;BME280;40873;47.522;19.106;2023-04-27T07:04:58;100746.75;;;9.72;51.08
54978;BME280;40873;47.522;19.106;2023-04-27T07:07:25;100746.38;;;9.80;52.83
54978;BME280;40873;47.522;19.106;2023-04-27T07:09:52;100748.31;;;9.76;53.41
54978;BME280;40873;47.522;19.106;2023-04-27T07:12:19;100752.03;;;9.89;50.35
54978;BME280;40873;47.522;19.106;2023-04-27T07:14:45;100755.50;;;10.07;49.71
54978;BME280;40873;47.522;19.106;2023-04-27T07:17:13;100749.81;;;10.15;49.85
54978;BME280;40873;47.522;19.106;2023-04-27T07:19:39;100746.50;;;10.29;49.44
54978;BME280;40873;47.522;19.106;2023-04-27T07:22:07;100756.81;;;10.33;47.25
54978;BME280;40873;47.522;19.106;2023-04-27T07:24:38;100749.44;;;10.40;47.18
54978;BME280;40873;47.522;19.106;2023-04-27T07:27:05;100747.88;;;10.36;45.37
54978;BME280;40873;47.522;19.106;2023-04-27T07:29:32;100750.50;;;10.36;45.12
54978;BME280;40873;47.522;19.106;2023-04-27T07:32:00;100752.28;;;10.53;48.80
54978;BME280;40873;47.522;19.106;2023-04-27T07:34:27;100752.88;;;10.58;46.70
54978;BME280;40873;47.522;19.106;2023-04-27T07:37:08;100753.31;;;10.66;47.29
54978;BME280;40873;47.522;19.106;2023-04-27T07:39:34;100753.56;;;10.77;47.11
54978;BME280;40873;47.522;19.106;2023-04-27T07:42:02;100759.91;;;11.06;48.23
54978;BME280;40873;47.522;19.106;2023-04-27T07:44:29;100752.47;;;10.97;46.21
54978;BME280;40873;47.522;19.106;2023-04-27T07:46:56;100757.84;;;11.11;45.66
54978;BME280;40873;47.522;19.106;2023-04-27T07:49:24;100745.63;;;11.24;44.37
54978;BME280;40873;47.522;19.106;2023-04-27T07:51:52;100745.13;;;11.34;43.99
54978;BME280;40873;47.522;19.106;2023-04-27T07:54:18;100751.41;;;11.47;44.18
54978;BME280;40873;47.522;19.106;2023-04-27T07:56:46;100747.41;;;11.40;39.73
54978;BME280;40873;47.522;19.106;2023-04-27T07:59:12;100748.44;;;11.37;39.70
54978;BME280;40873;47.522;19.106;2023-04-27T08:01:41;100744.34;;;11.47;40.24
54978;BME280;40873;47.522;19.106;2023-04-27T08:04:08;100748.53;;;11.82;41.69
54978;BME280;40873;47.522;19.106;2023-04-27T08:06:36;100752.91;;;11.83;39.97
54978;BME280;40873;47.522;19.106;2023-04-27T08:09:04;100748.19;;;12.02;38.73
54978;BME280;40873;47.522;19.106;2023-04-27T08:11:31;100744.69;;;12.01;39.76
54978;BME280;40873;47.522;19.106;2023-04-27T08:13:58;100748.69;;;12.23;41.97
54978;BME280;40873;47.522;19.106;2023-04-27T08:16:28;100744.72;;;12.30;39.68
54978;BME280;40873;47.522;19.106;2023-04-27T08:18:55;100744.44;;;12.63;38.78
54978;BME280;40873;47.522;19.106;2023-04-27T08:21:24;100745.19;;;12.65;36.70
54978;BME280;40873;47.522;19.106;2023-04-27T08:23:51;100742.50;;;12.79;36.84
54978;BME280;40873;47.522;19.106;2023-04-27T08:26:18;100748.56;;;12.96;37.65
54978;BME280;40873;47.522;19.106;2023-04-27T08:28:45;100751.13;;;12.83;36.08
54978;BME280;40873;47.522;19.106;2023-04-27T08:31:13;100758.41;;;12.79;37.42
54978;BME280;40873;47.522;19.106;2023-04-27T08:33:40;100754.44;;;12.72;37.41
54978;BME280;40873;47.522;19.106;2023-04-27T08:36:07;100748.53;;;13.10;37.95
54978;BME280;40873;47.522;19.106;2023-04-27T08:38:34;100753.16;;;13.06;36.90
54978;BME280;40873;47.522;19.106;2023-04-27T08:41:01;100742.94;;;13.14;37.16
54978;BME280;40873;47.522;19.106;2023-04-27T08:43:46;100736.91;;;13.39;33.97
54978;BME280;40873;47.522;19.106;2023-04-27T08:46:23;100738.25;;;13.72;37.19
54978;BME280;40873;47.522;19.106;2023-04-27T08:48:53;100740.94;;;13.97;36.28
54978;BME280;40873;47.522;19.106;2023-04-27T08:51:21;100723.75;;;14.03;35.90
54978;BME280;40873;47.522;19.106;2023-04-27T08:53:50;100738.81;;;14.03;35.23
54978;BME280;40873;47.522;19.106;2023-04-27T08:56:18;100740.94;;;14.10;35.41
54978;BME280;40873;47.522;19.106;2023-04-27T08:58:45;100731.00;;;14.26;38.53
54978;BME280;40873;47.522;19.106;2023-04-27T09:01:12;100726.31;;;14.43;35.21
54978;BME280;40873;47.522;19.106;2023-04-27T09:03:39;100733.41;;;13.79;34.88
54978;BME280;40873;47.522;19.106;2023-04-27T09:06:07;100725.31;;;13.67;36.48
54978;BME280;40873;47.522;19.106;2023-04-27T09:08:44;100725.78;;;13.47;36.21
54978;BME280;40873;47.522;19.106;2023-04-27T09:11:13;100724.66;;;13.24;38.51
54978;BME280;40873;47.522;19.106;2023-04-27T09:13:41;100725.41;;;13.12;36.94
54978;BME280;40873;47.522;19.106;2023-04-27T09:16:14;100733.41;;;12.98;38.06
54978;BME280;40873;47.522;19.106;2023-04-27T09:18:42;100723.44;;;12.74;38.57
54978;BME280;40873;47.522;19.106;2023-04-27T09:21:09;100722.75;;;12.85;38.70
54978;BME280;40873;47.522;19.106;2023-04-27T09:23:38;100721.25;;;12.81;38.24
54978;BME280;40873;47.522;19.106;2023-04-27T09:26:07;100723.06;;;12.80;38.15
54978;BME280;40873;47.522;19.106;2023-04-27T09:28:37;100724.59;;;12.56;38.24
54978;BME280;40873;47.522;19.106;2023-04-27T09:31:05;100725.28;;;12.45;39.14
54978;BME280;40873;47.522;19.106;2023-04-27T09:33:35;100719.97;;;12.59;39.81
54978;BME280;40873;47.522;19.106;2023-04-27T09:36:04;100721.16;;;12.82;40.58
54978;BME280;40873;47.522;19.106;2023-04-27T09:38:32;100716.06;;;13.06;38.05
54978;BME280;40873;47.522;19.106;2023-04-27T09:40:59;100709.19;;;13.58;37.43
54978;BME280;40873;47.522;19.106;2023-04-27T09:43:27;100706.09;;;13.51;38.64
54978;BME280;40873;47.522;19.106;2023-04-27T09:45:57;100704.03;;;13.94;36.06
54978;BME280;40873;47.522;19.106;2023-04-27T09:48:25;100700.31;;;13.97;36.70
54978;BME280;40873;47.522;19.106;2023-04-27T09:50:52;100703.91;;;14.09;38.81
54978;BME280;40873;47.522;19.106;2023-04-27T09:53:27;100695.28;;;14.43;36.96
54978;BME280;40873;47.522;19.106;2023-04-27T09:56:07;100698.50;;;14.85;33.81
54978;BME280;40873;47.522;19.106;2023-04-27T10:01:38;100693.06;;;14.63;34.88
54978;BME280;40873;47.522;19.106;2023-04-27T10:04:35;100689.16;;;14.56;37.68
54978;BME280;40873;47.522;19.106;2023-04-27T10:07:12;100685.75;;;14.41;33.41
54978;BME280;40873;47.522;19.106;2023-04-27T10:09:48;100682.63;;;14.72;33.47
54978;BME280;40873;47.522;19.106;2023-04-27T10:17:30;100685.78;;;15.49;31.36
54978;BME280;40873;47.522;19.106;2023-04-27T10:20:02;100680.63;;;15.59;29.46
54978;BME280;40873;47.522;19.106;2023-04-27T10:25:18;100679.00;;;15.80;30.94
54978;BME280;40873;47.522;19.106;2023-04-27T10:27:56;100673.97;;;16.00;30.40
54978;BME280;40873;47.522;19.106;2023-04-27T10:30:32;100672.25;;;16.77;32.46
54978;BME280;40873;47.522;19.106;2023-04-27T10:33:07;100679.41;;;16.09;32.59
54978;BME280;40873;47.522;19.106;2023-04-27T10:35:42;100679.03;;;15.56;31.70
54978;BME280;40873;47.522;19.106;2023-04-27T10:40:44;100676.28;;;15.34;33.04
54978;BME280;40873;47.522;19.106;2023-04-27T10:43:16;100672.97;;;15.19;34.55
54978;BME280;40873;47.522;19.106;2023-04-27T10:45:43;100682.78;;;15.54;33.97
54978;BME280;40873;47.522;19.106;2023-04-27T10:48:14;100667.91;;;16.09;33.64
54978;BME280;40873;47.522;19.106;2023-04-27T10:50:42;100664.75;;;16.71;31.72
54978;BME280;40873;47.522;19.106;2023-04-27T10:53:10;100668.00;;;16.63;32.44
54978;BME280;40873;47.522;19.106;2023-04-27T10:55:37;100667.00;;;16.98;32.20
54978;BME280;40873;47.522;19.106;2023-04-27T10:58:04;100667.75;;;17.21;30.18
54978;BME280;40873;47.522;19.106;2023-04-27T11:00:38;100679.06;;;16.36;31.42
54978;BME280;40873;47.522;19.106;2023-04-27T11:05:38;100667.91;;;17.08;32.04
54978;BME280;40873;47.522;19.106;2023-04-27T11:08:07;100664.63;;;16.84;31.52
54978;BME280;40873;47.522;19.106;2023-04-27T11:10:38;100662.16;;;16.92;31.17
54978;BME280;40873;47.522;19.106;2023-04-27T11:13:07;100661.00;;;16.74;29.59
54978;BME280;40873;47.522;19.106;2023-04-27T11:18:11;100664.50;;;16.52;29.57
54978;BME280;40873;47.522;19.106;2023-04-27T11:20:38;100645.91;;;16.95;30.30
54978;BME280;40873;47.522;19.106;2023-04-27T11:23:06;100658.13;;;17.30;29.16
54978;BME280;40873;47.522;19.106;2023-04-27T11:25:33;100648.28;;;17.41;29.70
54978;BME280;40873;47.522;19.106;2023-04-27T11:28:00;100653.75;;;17.61;31.11
54978;BME280;40873;47.522;19.106;2023-04-27T11:30:28;100646.03;;;18.40;30.13
54978;BME280;40873;47.522;19.106;2023-04-27T11:32:55;100646.91;;;18.50;28.40
54978;BME280;40873;47.522;19.106;2023-04-27T11:35:32;100639.81;;;18.79;29.50
54978;BME280;40873;47.522;19.106;2023-04-27T11:38:00;100639.31;;;18.55;28.18
54978;BME280;40873;47.522;19.106;2023-04-27T11:40:27;100635.03;;;18.73;28.06
54978;BME280;40873;47.522;19.106;2023-04-27T11:42:58;100643.63;;;17.22;29.27
54978;BME280;40873;47.522;19.106;2023-04-27T11:45:26;100646.28;;;17.75;29.34
54978;BME280;40873;47.522;19.106;2023-04-27T11:47:59;100656.13;;;17.43;29.63
54978;BME280;40873;47.522;19.106;2023-04-27T11:50:26;100665.53;;;17.05;28.84
54978;BME280;40873;47.522;19.106;2023-04-27T11:52:53;100658.66;;;17.44;27.96
54978;BME280;40873;47.522;19.106;2023-04-27T11:55:21;100653.03;;;17.79;28.34
54978;BME280;40873;47.522;19.106;2023-04-27T11:57:55;100647.94;;;17.97;27.10
54978;BME280;40873;47.522;19.106;2023-04-27T12:00:23;100653.41;;;18.57;29.40
54978;BME280;40873;47.522;19.106;2023-04-27T12:02:50;100651.75;;;18.35;26.92
54978;BME280;40873;47.522;19.106;2023-04-27T12:05:18;100650.81;;;17.64;26.90
54978;BME280;40873;47.522;19.106;2023-04-27T12:07:45;100642.56;;;18.58;28.21
54978;BME280;40873;47.522;19.106;2023-04-27T12:10:13;100642.09;;;19.03;27.48
54978;BME280;40873;47.522;19.106;2023-04-27T12:12:40;100646.53;;;18.64;26.42
54978;BME280;40873;47.522;19.106;2023-04-27T12:15:07;100642.06;;;18.84;28.12
54978;BME280;40873;47.522;19.106;2023-04-27T12:17:34;100643.91;;;19.70;27.31
54978;BME280;40873;47.522;19.106;2023-04-27T12:20:02;100640.00;;;19.07;27.42
54978;BME280;40873;47.522;19.106;2023-04-27T12:22:29;100636.03;;;19.69;29.27
54978;BME280;40873;47.522;19.106;2023-04-27T12:24:56;100629.81;;;20.15;28.00
54978;BME280;40873;47.522;19.106;2023-04-27T12:27:23;100640.97;;;19.25;26.91
54978;BME280;40873;47.522;19.106;2023-04-27T12:29:52;100642.97;;;17.83;28.37
54978;BME280;40873;47.522;19.106;2023-04-27T12:32:19;100640.25;;;17.73;28.49
54978;BME280;40873;47.522;19.106;2023-04-27T12:34:47;100635.63;;;17.75;28.08
54978;BME280;40873;47.522;19.106;2023-04-27T12:37:13;100634.53;;;18.58;28.07
54978;BME280;40873;47.522;19.106;2023-04-27T12:39:40;100631.09;;;19.45;26.84
54978;BME280;40873;47.522;19.106;2023-04-27T12:42:07;100631.56;;;19.21;27.07
54978;BME280;40873;47.522;19.106;2023-04-27T12:44:34;100631.53;;;19.11;26.31
54978;BME280;40873;47.522;19.106;2023-04-27T12:47:01;100631.66;;;18.90;27.46
54978;BME280;40873;47.522;19.106;2023-04-27T12:49:30;100635.19;;;18.91;26.99
54978;BME280;40873;47.522;19.106;2023-04-27T12:51:56;100631.94;;;18.97;26.78
54978;BME280;40873;47.522;19.106;2023-04-27T12:54:24;100628.84;;;18.42;27.25
54978;BME280;40873;47.522;19.106;2023-04-27T12:56:51;100625.00;;;18.66;27.55
54978;BME280;40873;47.522;19.106;2023-04-27T12:59:18;100631.84;;;19.28;26.56
54978;BME280;40873;47.522;19.106;2023-04-27T13:01:45;100639.13;;;19.45;26.33
54978;BME280;40873;47.522;19.106;2023-04-27T13:04:17;100640.84;;;19.07;26.40
54978;BME280;40873;47.522;19.106;2023-04-27T13:06:46;100640.00;;;19.16;26.71